»·PEaware :: SKY385 KABQ-KSKX

SKY385 :: KABQ-KSKX

FLIGHT INFORMATION

Flight Status: Arrived
Operator:
Sky High Charters
More flights by this operator :: More flights under this callsign
Pilot: Justin Z. (25672)
Aircraft: SOCATA TBM-900
(TBM9)
More flights by this aircraft type
Origin: KABQ Albuquerque Intl Sunport
United States
Destination: KSKX Taos Regl
United States
More flights between these airports :: More routes between these airports
Route: +ABQ3 V263 SAF V83 TAS
File this flight plan on PilotEdge
Remarks: SKY HIGH SCENARIO 2 ATTEMPT (LEG 1)
Altitude:
(Current/Filed)
11,000ft
Speed:
(Current/Filed)
225kts
Departed: 31-Aug-19 09:04 AM
Arrived: 31-Aug-19 09:37 AM
Distance/Time
Traveled:
97nm/0:33
Distance/Time
To Go:
Arrived

Flight Plot

Page will automatically refresh every two minutes.


Map Options




Map Legend


Flown Route
Filed Route
Departure Airport
Arrival Airport
Navaid (VOR, NDB)
Fix

Horizontal Profiles

Position Reports

Time Latitude Longitude Heading Altitude Ground
Speed
31-Aug-19 08:47 35.036611 -106.617457 137 5310ft 0kts
31-Aug-19 08:48 35.036611 -106.617457 137 5310ft 0kts
31-Aug-19 08:49 35.036611 -106.617457 137 5310ft 0kts
31-Aug-19 08:50 35.036611 -106.617457 137 5310ft 0kts
31-Aug-19 08:51 35.036611 -106.617457 137 5310ft 0kts
31-Aug-19 08:52 35.036611 -106.617457 137 5310ft 0kts
31-Aug-19 08:53 35.036611 -106.617457 137 5310ft 0kts
31-Aug-19 08:54 35.036611 -106.617457 137 5310ft 0kts
31-Aug-19 08:55 35.036611 -106.617457 137 5310ft 0kts
31-Aug-19 08:56 35.036611 -106.617457 137 5310ft 0kts
31-Aug-19 08:57 35.036611 -106.617457 137 5310ft 0kts
31-Aug-19 08:58 35.036611 -106.617457 137 5310ft 0kts
31-Aug-19 08:59 35.033533 -106.619125 224 5308ft 25kts
31-Aug-19 09:00 35.027471 -106.626440 224 5305ft 34kts
31-Aug-19 09:01 35.022913 -106.631183 135 5285ft 0kts
31-Aug-19 09:02 35.022907 -106.631177 136 5285ft 1kts
31-Aug-19 09:03 35.033014 -106.617620 44 5603ft 125kts
31-Aug-19 09:04 35.065122 -106.604065 314 7411ft 150kts
31-Aug-19 09:05 35.096831 -106.628814 353 9700ft 139kts
31-Aug-19 09:06 35.138914 -106.630963 355 11057ft 192kts
31-Aug-19 09:07 35.203646 -106.634880 354 11018ft 256kts
31-Aug-19 09:08 35.277820 -106.639510 354 11000ft 269kts
31-Aug-19 09:09 35.352287 -106.644164 354 11000ft 266kts
31-Aug-19 09:10 35.426478 -106.648807 354 11007ft 266kts
31-Aug-19 09:11 35.498296 -106.624669 16 10960ft 269kts
31-Aug-19 09:12 35.525778 -106.547464 88 10970ft 270kts
31-Aug-19 09:13 35.528832 -106.454673 89 10984ft 269kts
31-Aug-19 09:14 35.531668 -106.362796 89 10996ft 268kts
31-Aug-19 09:15 35.534478 -106.271081 89 11004ft 269kts
31-Aug-19 09:16 35.537257 -106.178100 89 11003ft 272kts
31-Aug-19 09:17 35.541744 -106.085402 69 10966ft 276kts
31-Aug-19 09:18 35.609909 -106.054708 5 11002ft 274kts
31-Aug-19 09:19 35.686101 -106.043579 5 11000ft 275kts
31-Aug-19 09:20 35.762137 -106.032394 5 11020ft 274kts
31-Aug-19 09:21 35.838162 -106.021187 5 11039ft 274kts
31-Aug-19 09:22 35.914154 -106.009957 5 11046ft 274kts
31-Aug-19 09:23 35.990148 -105.998692 5 11053ft 274kts
31-Aug-19 09:24 36.066073 -105.987431 5 11058ft 274kts
31-Aug-19 09:25 36.142083 -105.976157 5 11060ft 275kts
31-Aug-19 09:26 36.218441 -105.964793 5 11065ft 275kts
31-Aug-19 09:27 36.289052 -105.954240 4 11035ft 217kts
31-Aug-19 09:28 36.334801 -105.926997 53 11054ft 171kts
31-Aug-19 09:29 36.347178 -105.875334 51 10058ft 140kts
31-Aug-19 09:30 36.369736 -105.834914 53 9122ft 146kts
31-Aug-19 09:31 36.391825 -105.794447 53 9096ft 153kts
31-Aug-19 09:32 36.415302 -105.751277 52 8464ft 125kts
31-Aug-19 09:33 36.433735 -105.717322 54 7961ft 130kts
31-Aug-19 09:34 36.450056 -105.687188 49 7274ft 93kts
31-Aug-19 09:35 36.461970 -105.665451 57 7091ft 56kts
31-Aug-19 09:36 36.461234 -105.668869 230 7091ft 0kts
31-Aug-19 09:37 36.461234 -105.668869 230 7091ft 0kts
31-Aug-19 09:38 36.461234 -105.668869 230 7091ft 0kts
31-Aug-19 09:39 36.461234 -105.668869 230 7091ft 0kts
31-Aug-19 09:40 36.461234 -105.668869 230 7091ft 0kts
31-Aug-19 09:41 36.461234 -105.668869 230 7091ft 0kts

Navigation Log

Ident Type
Flight plan parsing failed, navigation log unavailable